createdAt,value
2018-09-12T00:02:27.257Z,16.40
2018-09-12T00:04:55.763Z,26.00
2018-09-12T00:07:24.216Z,21.30
2018-09-12T00:09:52.683Z,20.47
2018-09-12T00:12:21.191Z,20.03
2018-09-12T00:14:49.676Z,17.97
2018-09-12T00:17:18.131Z,19.87
2018-09-12T00:19:46.558Z,20.30
2018-09-12T00:22:15.149Z,19.37
2018-09-12T00:24:43.753Z,23.93
2018-09-12T00:27:12.251Z,20.07
2018-09-12T00:29:40.721Z,19.47
2018-09-12T00:32:09.331Z,17.97
2018-09-12T00:34:37.745Z,16.97
2018-09-12T00:37:09.563Z,18.40
2018-09-12T00:39:38.111Z,16.73
2018-09-12T00:42:06.579Z,17.37
2018-09-12T00:44:35.119Z,20.40
2018-09-12T00:47:03.677Z,16.83
2018-09-12T00:49:32.133Z,17.13
2018-09-12T00:52:00.589Z,24.63
2018-09-12T00:54:29.111Z,20.20
2018-09-12T00:56:57.604Z,18.73
2018-09-12T00:59:26.246Z,24.47
2018-09-12T01:01:54.818Z,13.63
2018-09-12T01:04:23.968Z,20.27
2018-09-12T01:06:52.499Z,15.67
2018-09-12T01:09:21.009Z,20.30
2018-09-12T01:11:49.498Z,19.53
2018-09-12T01:14:20.283Z,14.23
2018-09-12T01:16:53.047Z,17.00
2018-09-12T01:19:21.490Z,16.93
2018-09-12T01:21:49.937Z,14.70
2018-09-12T01:24:18.348Z,14.83
2018-09-12T01:26:46.864Z,17.67
2018-09-12T01:29:15.345Z,15.70
2018-09-12T01:31:43.953Z,19.20
2018-09-12T01:34:12.575Z,22.30
2018-09-12T01:36:41.402Z,22.20
2018-09-12T01:39:10.845Z,16.70
2018-09-12T01:41:39.389Z,21.80
2018-09-12T01:44:07.933Z,19.60
2018-09-12T01:46:36.445Z,18.87
2018-09-12T01:49:04.864Z,17.53
2018-09-12T01:51:33.513Z,18.23
2018-09-12T01:54:01.938Z,19.93
2018-09-12T01:56:30.419Z,14.33
2018-09-12T01:58:58.871Z,15.83
2018-09-12T02:01:27.409Z,17.40
2018-09-12T02:03:55.946Z,17.63
2018-09-12T02:06:24.981Z,12.23
2018-09-12T02:08:53.441Z,12.47
2018-09-12T02:11:22.385Z,11.40
2018-09-12T02:13:51.316Z,16.27
2018-09-12T02:16:19.738Z,15.17
2018-09-12T02:18:48.317Z,14.67
2018-09-12T02:21:17.325Z,17.40
2018-09-12T02:23:45.863Z,14.13
2018-09-12T02:26:14.861Z,17.77
2018-09-12T02:28:43.345Z,19.83
2018-09-12T02:31:11.864Z,15.83
2018-09-12T02:33:40.421Z,18.33
2018-09-12T02:36:14.165Z,20.07
2018-09-12T02:38:42.741Z,11.13
2018-09-12T02:41:11.170Z,15.47
2018-09-12T02:43:39.620Z,12.13
2018-09-12T02:46:08.074Z,16.10
2018-09-12T02:48:36.553Z,11.87
2018-09-12T02:51:05.043Z,11.33
2018-09-12T02:53:33.580Z,15.50
2018-09-12T02:56:02.042Z,13.30
2018-09-12T02:58:30.555Z,13.57
2018-09-12T03:00:59.014Z,11.97
2018-09-12T03:03:27.546Z,14.83
2018-09-12T03:05:56.084Z,13.50
2018-09-12T03:08:24.620Z,15.13
2018-09-12T03:10:53.716Z,13.97
2018-09-12T03:13:22.180Z,11.63
2018-09-12T03:15:50.627Z,11.57
2018-09-12T03:18:19.816Z,20.67
2018-09-12T03:20:48.470Z,9.93
2018-09-12T03:23:16.765Z,13.97
2018-09-12T03:25:45.296Z,12.67
2018-09-12T03:28:13.788Z,9.70
2018-09-12T03:30:42.820Z,8.90
2018-09-12T03:33:11.436Z,7.07
2018-09-12T03:35:40.538Z,9.53
2018-09-12T03:38:09.965Z,13.97
2018-09-12T03:40:38.462Z,11.17
2018-09-12T03:43:06.908Z,10.23
2018-09-12T03:45:35.444Z,11.57
2018-09-12T03:48:04.086Z,12.00
2018-09-12T03:50:32.483Z,11.63
2018-09-12T03:53:00.953Z,11.97
2018-09-12T03:55:29.465Z,10.20
2018-09-12T03:57:57.886Z,9.97
2018-09-12T04:00:26.347Z,10.27
2018-09-12T04:02:54.845Z,7.93
2018-09-12T04:05:23.361Z,8.27
2018-09-12T04:07:51.838Z,9.20
2018-09-12T04:10:20.259Z,9.57
2018-09-12T04:12:48.790Z,10.30
2018-09-12T04:15:18.162Z,11.97
2018-09-12T04:17:46.671Z,10.23
2018-09-12T04:20:15.148Z,12.90
2018-09-12T04:22:44.276Z,14.00
2018-09-12T04:25:12.681Z,11.93
2018-09-12T04:27:41.150Z,13.23
2018-09-12T04:30:09.747Z,13.33
2018-09-12T04:32:38.328Z,13.43
2018-09-12T04:35:06.733Z,11.20
2018-09-12T04:37:35.176Z,12.67
2018-09-12T04:40:03.716Z,8.73
2018-09-12T04:42:32.201Z,12.63
2018-09-12T04:45:02.343Z,11.20
2018-09-12T04:47:30.905Z,8.90
2018-09-12T04:49:59.408Z,15.97
2018-09-12T04:52:27.856Z,10.83
2018-09-12T04:54:56.334Z,13.17
2018-09-12T04:57:24.861Z,10.67
2018-09-12T04:59:53.291Z,16.97
2018-09-12T05:02:22.010Z,13.43
2018-09-12T05:04:50.563Z,13.13
2018-09-12T05:07:19.012Z,11.07
2018-09-12T05:09:47.558Z,11.87
2018-09-12T05:12:16.023Z,12.30
2018-09-12T05:14:44.506Z,12.73
2018-09-12T05:17:12.932Z,16.63
2018-09-12T05:19:41.376Z,14.47
2018-09-12T05:22:09.861Z,12.97
2018-09-12T05:24:38.290Z,10.20
2018-09-12T05:27:06.866Z,6.60
2018-09-12T05:29:35.892Z,5.30
2018-09-12T05:32:04.486Z,6.80
2018-09-12T05:34:32.929Z,4.63
2018-09-12T05:37:01.536Z,3.40
2018-09-12T05:39:30.214Z,2.63
2018-09-12T05:41:58.919Z,2.20
2018-09-12T05:44:27.499Z,1.60
2018-09-12T05:46:56.017Z,1.40
2018-09-12T05:49:24.547Z,1.30
2018-09-12T05:51:53.092Z,1.00
2018-09-12T05:54:21.589Z,1.00
2018-09-12T05:56:50.050Z,1.47
2018-09-12T05:59:18.460Z,1.13
2018-09-12T06:01:46.888Z,0.93
2018-09-12T06:04:15.487Z,1.23
2018-09-12T06:06:44.071Z,1.07
2018-09-12T06:09:12.564Z,1.73
2018-09-12T06:11:41.105Z,1.10
2018-09-12T06:14:09.639Z,2.57
2018-09-12T06:16:38.140Z,1.83
2018-09-12T06:19:06.655Z,1.70
2018-09-12T06:21:35.508Z,1.33
2018-09-12T06:24:03.990Z,1.03
2018-09-12T06:26:32.578Z,1.83
2018-09-12T06:29:01.160Z,1.47
2018-09-12T06:31:29.721Z,1.47
2018-09-12T06:33:58.330Z,3.10
2018-09-12T06:36:30.289Z,2.50
2018-09-12T06:38:58.805Z,1.00
2018-09-12T06:41:27.383Z,1.43
2018-09-12T06:43:55.853Z,2.43
2018-09-12T06:46:24.315Z,2.37
2018-09-12T06:48:52.805Z,1.93
2018-09-12T06:51:21.287Z,2.80
2018-09-12T06:53:49.902Z,1.50
2018-09-12T06:56:18.410Z,3.10
2018-09-12T06:58:46.985Z,2.67
2018-09-12T07:01:15.557Z,2.47
2018-09-12T07:03:44.018Z,2.60
2018-09-12T07:06:12.516Z,1.90
2018-09-12T07:08:41.027Z,2.97
2018-09-12T07:11:09.577Z,2.03
2018-09-12T07:13:38.644Z,3.50
2018-09-12T07:16:07.285Z,3.17
2018-09-12T07:18:35.966Z,3.37
2018-09-12T07:21:04.801Z,2.67
2018-09-12T07:23:33.323Z,2.93
2018-09-12T07:26:01.855Z,3.00
2018-09-12T07:28:30.645Z,4.50
2018-09-12T07:30:59.448Z,3.10
2018-09-12T07:33:28.820Z,3.10
2018-09-12T07:35:57.381Z,2.13
2018-09-12T07:38:26.520Z,6.07
2018-09-12T07:40:55.742Z,5.27
2018-09-12T07:43:24.366Z,5.37
2018-09-12T07:45:53.028Z,6.67
2018-09-12T07:48:22.045Z,5.43
2018-09-12T07:50:50.685Z,3.40
2018-09-12T07:53:19.751Z,3.10
2018-09-12T07:55:48.211Z,5.23
2018-09-12T07:58:16.706Z,5.97
2018-09-12T08:00:45.150Z,5.90
2018-09-12T08:03:13.946Z,6.33
2018-09-12T08:05:42.478Z,5.20
2018-09-12T08:08:11.077Z,3.73
2018-09-12T08:10:39.706Z,5.70
2018-09-12T08:13:08.261Z,2.00
2018-09-12T08:15:36.904Z,3.40
2018-09-12T08:18:05.850Z,2.00
2018-09-12T08:20:34.337Z,3.83
2018-09-12T08:23:02.879Z,3.23
2018-09-12T08:25:31.893Z,5.20
2018-09-12T08:28:00.504Z,2.83
2018-09-12T08:30:31.732Z,3.27
2018-09-12T08:33:00.381Z,3.97
2018-09-12T08:35:28.856Z,1.87
2018-09-12T08:37:57.476Z,3.97
2018-09-12T08:40:28.127Z,2.27
2018-09-12T08:42:57.242Z,2.13
2018-09-12T08:45:25.822Z,1.83
2018-09-12T08:47:54.533Z,1.33
2018-09-12T08:50:24.507Z,2.13
2018-09-12T08:52:54.355Z,1.80
2018-09-12T08:55:22.805Z,2.47
2018-09-12T08:57:51.305Z,2.10
2018-09-12T09:00:19.974Z,2.17
2018-09-12T09:02:48.627Z,1.70
2018-09-12T09:05:17.173Z,4.77
2018-09-12T09:07:45.708Z,3.13
2018-09-12T09:10:14.294Z,1.87
2018-09-12T09:12:42.791Z,2.33
2018-09-12T09:15:11.249Z,1.07
2018-09-12T09:17:39.784Z,1.83
2018-09-12T09:20:08.247Z,2.77
2018-09-12T09:22:36.863Z,0.90
2018-09-12T09:25:05.378Z,1.10
2018-09-12T09:27:34.182Z,0.80
2018-09-12T09:30:02.710Z,1.57
2018-09-12T09:32:31.305Z,2.70
2018-09-12T09:35:00.093Z,2.23
2018-09-12T09:37:28.493Z,1.10
2018-09-12T09:39:57.089Z,3.13
2018-09-12T09:42:25.655Z,1.73
2018-09-12T09:44:54.254Z,1.13
2018-09-12T09:47:22.785Z,0.87
2018-09-12T09:49:55.650Z,0.83
2018-09-12T09:52:25.060Z,2.13
2018-09-12T09:54:53.775Z,1.37
2018-09-12T09:57:22.769Z,1.47
2018-09-12T09:59:52.045Z,2.67
2018-09-12T10:04:26.904Z,1.97
2018-09-12T10:06:58.368Z,2.63
2018-09-12T10:09:30.636Z,1.13
2018-09-12T10:12:02.970Z,1.40
2018-09-12T10:14:31.831Z,1.30
2018-09-12T10:17:00.339Z,1.37
2018-09-12T10:19:28.821Z,3.60
2018-09-12T10:21:57.426Z,1.00
2018-09-12T10:24:25.966Z,2.53
2018-09-12T10:26:54.373Z,2.60
2018-09-12T10:29:22.807Z,1.10
2018-09-12T10:31:51.249Z,1.13
2018-09-12T10:34:20.062Z,2.33
2018-09-12T10:36:48.585Z,2.93
2018-09-12T10:39:17.243Z,1.37
2018-09-12T10:41:45.768Z,1.23
2018-09-12T10:44:14.265Z,0.83
2018-09-12T10:46:42.716Z,1.90
2018-09-12T10:49:11.169Z,1.20
2018-09-12T10:51:39.737Z,1.80
2018-09-12T10:54:08.426Z,1.33
2018-09-12T10:56:36.869Z,1.10
2018-09-12T10:59:05.351Z,1.40
2018-09-12T11:01:33.901Z,1.43
2018-09-12T11:04:02.339Z,2.27
2018-09-12T11:06:30.934Z,1.83
2018-09-12T11:08:59.373Z,2.93
2018-09-12T11:11:27.876Z,1.83
2018-09-12T11:13:57.015Z,1.10
2018-09-12T11:16:25.462Z,2.97
2018-09-12T11:18:54.279Z,1.40
2018-09-12T11:21:23.480Z,1.20
2018-09-12T11:23:52.346Z,2.60
2018-09-12T11:26:20.984Z,2.10
2018-09-12T11:28:49.570Z,1.53
2018-09-12T11:31:18.041Z,1.20
2018-09-12T11:33:46.700Z,1.43
2018-09-12T11:36:15.221Z,1.70
2018-09-12T11:38:43.866Z,2.17
2018-09-12T11:41:12.416Z,1.00
2018-09-12T11:43:41.816Z,0.90
2018-09-12T11:46:10.239Z,1.27
2018-09-12T11:48:38.930Z,1.10
2018-09-12T11:51:07.413Z,1.10
2018-09-12T11:53:37.057Z,1.63
2018-09-12T11:56:05.761Z,2.33
2018-09-12T11:58:34.521Z,1.17
2018-09-12T12:01:03.318Z,1.30
2018-09-12T12:03:31.878Z,1.73
2018-09-12T12:06:00.727Z,1.00
2018-09-12T12:08:29.357Z,1.17
2018-09-12T12:10:58.349Z,0.87
2018-09-12T12:13:26.966Z,1.17
2018-09-12T12:15:55.673Z,0.80
2018-09-12T12:18:24.223Z,1.03
2018-09-12T12:20:52.827Z,1.27
2018-09-12T12:23:21.593Z,1.10
2018-09-12T12:25:50.147Z,0.90
2018-09-12T12:28:18.891Z,2.17
2018-09-12T12:30:47.614Z,0.90
2018-09-12T12:33:16.341Z,1.97
2018-09-12T12:35:45.018Z,1.93
2018-09-12T12:38:13.794Z,1.90
2018-09-12T12:40:42.416Z,1.87
2018-09-12T12:43:11.279Z,2.83
2018-09-12T12:45:39.915Z,1.57
2018-09-12T12:48:09.027Z,1.40
2018-09-12T12:50:38.065Z,2.30
2018-09-12T12:53:06.856Z,1.70
2018-09-12T12:55:35.343Z,0.87
2018-09-12T12:58:03.995Z,2.43
2018-09-12T13:00:32.489Z,2.63
2018-09-12T13:03:00.990Z,1.87
2018-09-12T13:05:30.084Z,3.90
2018-09-12T13:07:58.611Z,3.37
2018-09-12T13:10:27.507Z,2.20
2018-09-12T13:12:56.206Z,2.87
2018-09-12T13:15:24.702Z,2.60
2018-09-12T13:17:53.614Z,1.50
2018-09-12T13:20:22.169Z,2.83
2018-09-12T13:22:50.721Z,2.87
2018-09-12T13:25:19.235Z,2.47
2018-09-12T13:27:47.760Z,5.00
2018-09-12T13:30:16.259Z,2.17
2018-09-12T13:32:45.323Z,5.40
2018-09-12T13:35:13.906Z,4.53
2018-09-12T13:37:42.386Z,3.63
2018-09-12T13:40:11.211Z,1.20
2018-09-12T13:42:40.547Z,2.60
2018-09-12T13:45:09.097Z,2.43
2018-09-12T13:47:37.605Z,2.63
2018-09-12T13:50:06.434Z,2.83
2018-09-12T13:52:34.953Z,2.73
2018-09-12T13:55:03.428Z,4.50
2018-09-12T13:57:32.017Z,2.40
2018-09-12T14:00:00.584Z,2.70
2018-09-12T14:02:29.119Z,2.33
2018-09-12T14:04:57.638Z,1.30
2018-09-12T14:07:26.283Z,1.97
2018-09-12T14:09:54.932Z,3.17
2018-09-12T14:12:23.393Z,1.87
2018-09-12T14:14:51.903Z,2.03
2018-09-12T14:17:20.569Z,3.30
2018-09-12T14:19:49.103Z,1.70
2018-09-12T14:22:18.049Z,1.10
2018-09-12T14:24:46.849Z,2.33
2018-09-12T14:27:15.453Z,2.03
2018-09-12T14:29:43.972Z,3.17
2018-09-12T14:32:12.601Z,1.50
2018-09-12T14:34:41.259Z,2.40
2018-09-12T14:37:09.741Z,2.37
2018-09-12T14:39:38.291Z,2.27
2018-09-12T14:42:06.971Z,3.80
2018-09-12T14:44:35.786Z,2.70
2018-09-12T14:47:04.326Z,4.27
2018-09-12T14:49:32.984Z,1.53
2018-09-12T14:52:01.527Z,2.50
2018-09-12T14:54:29.986Z,3.73
2018-09-12T14:56:58.516Z,3.47
2018-09-12T14:59:27.146Z,5.67
2018-09-12T15:01:55.640Z,4.87
2018-09-12T15:04:24.269Z,2.90
2018-09-12T15:06:52.849Z,3.63
2018-09-12T15:09:21.461Z,6.30
2018-09-12T15:11:50.011Z,2.57
2018-09-12T15:14:18.561Z,4.20
2018-09-12T15:16:47.117Z,2.87
2018-09-12T15:19:16.148Z,4.60
2018-09-12T15:21:44.690Z,3.93
2018-09-12T15:24:13.274Z,3.00
2018-09-12T15:26:42.014Z,5.47
2018-09-12T15:29:10.634Z,4.13
2018-09-12T15:31:39.246Z,4.07
2018-09-12T15:34:07.961Z,4.77
2018-09-12T15:36:37.415Z,2.83
2018-09-12T15:39:08.087Z,4.53
2018-09-12T15:41:36.683Z,3.87
2018-09-12T15:44:05.198Z,4.23
2018-09-12T15:46:33.728Z,2.80
2018-09-12T15:49:02.228Z,3.60
2018-09-12T15:51:30.697Z,3.47
2018-09-12T15:53:59.225Z,4.83
2018-09-12T15:56:27.697Z,2.67
2018-09-12T15:58:56.177Z,4.37
2018-09-12T16:01:24.654Z,5.87
2018-09-12T16:03:53.173Z,3.90
2018-09-12T16:06:21.819Z,7.67
2018-09-12T16:08:50.350Z,3.70
2018-09-12T16:11:18.834Z,4.13
2018-09-12T16:13:47.566Z,5.63
2018-09-12T16:16:16.049Z,3.30
2018-09-12T16:18:44.671Z,6.30
2018-09-12T16:21:13.255Z,2.53
2018-09-12T16:23:41.751Z,3.47
2018-09-12T16:26:10.385Z,3.00
2018-09-12T16:28:38.851Z,3.47
2018-09-12T16:31:07.858Z,2.87
2018-09-12T16:33:36.388Z,2.30
2018-09-12T16:36:04.851Z,2.63
2018-09-12T16:38:33.348Z,6.57
2018-09-12T16:41:01.881Z,4.67
2018-09-12T16:43:30.418Z,1.57
2018-09-12T16:45:59.004Z,3.47
2018-09-12T16:48:27.583Z,4.87
2018-09-12T16:50:56.203Z,5.17
2018-09-12T16:53:24.682Z,4.70
2018-09-12T16:55:53.175Z,8.43
2018-09-12T16:58:21.776Z,5.27
2018-09-12T17:00:50.263Z,4.20
2018-09-12T17:03:18.778Z,5.07
2018-09-12T17:05:47.261Z,5.50
2018-09-12T17:08:15.713Z,5.27
2018-09-12T17:10:44.148Z,4.47
2018-09-12T17:13:12.626Z,5.53
2018-09-12T17:15:41.309Z,6.03
2018-09-12T17:18:09.876Z,3.73
2018-09-12T17:20:38.573Z,7.93
2018-09-12T17:23:07.037Z,2.77
2018-09-12T17:25:35.527Z,2.80
2018-09-12T17:28:04.023Z,4.70
2018-09-12T17:30:32.500Z,4.53
2018-09-12T17:33:01.011Z,3.17
2018-09-12T17:35:30.301Z,3.87
2018-09-12T17:37:59.014Z,4.90
2018-09-12T17:40:27.435Z,3.70
2018-09-12T17:42:55.990Z,5.30
2018-09-12T17:45:24.448Z,2.77
2018-09-12T17:47:53.112Z,2.77
2018-09-12T17:50:21.633Z,6.00
2018-09-12T17:52:50.875Z,4.53
2018-09-12T17:55:19.456Z,9.20
2018-09-12T17:57:47.876Z,5.43
2018-09-12T18:00:16.456Z,6.40
2018-09-12T18:02:45.328Z,5.73
2018-09-12T18:05:13.836Z,4.90
2018-09-12T18:07:42.518Z,5.23
2018-09-12T18:10:11.168Z,7.57
2018-09-12T18:12:39.658Z,3.33
2018-09-12T18:15:08.144Z,3.03
2018-09-12T18:17:36.876Z,2.20
2018-09-12T18:20:05.327Z,4.67
2018-09-12T18:22:33.894Z,6.77
2018-09-12T18:25:02.424Z,5.30
2018-09-12T18:27:30.918Z,5.50
2018-09-12T18:29:59.448Z,3.97
2018-09-12T18:32:28.201Z,3.63
2018-09-12T18:34:56.753Z,4.27
2018-09-12T18:37:25.325Z,3.70
2018-09-12T18:39:53.919Z,3.20
2018-09-12T18:42:22.448Z,4.03
2018-09-12T18:44:51.801Z,4.63
2018-09-12T18:47:20.734Z,3.07
2018-09-12T18:49:50.180Z,3.23
2018-09-12T18:52:19.099Z,4.70
2018-09-12T18:54:47.781Z,2.67
2018-09-12T18:57:16.465Z,4.80
2018-09-12T18:59:45.172Z,3.73
2018-09-12T19:02:13.912Z,2.23
2018-09-12T19:04:42.526Z,5.53
2018-09-12T19:07:11.483Z,5.47
2018-09-12T19:09:40.080Z,3.27
2018-09-12T19:12:08.585Z,4.60
2018-09-12T19:14:37.094Z,3.07
2018-09-12T19:17:05.708Z,5.33
2018-09-12T19:19:34.387Z,3.73
2018-09-12T19:22:03.157Z,2.63
2018-09-12T19:24:31.849Z,4.70
2018-09-12T19:27:00.508Z,4.93
2018-09-12T19:29:29.050Z,5.27
2018-09-12T19:31:57.653Z,4.10
2018-09-12T19:34:26.266Z,2.97
2018-09-12T19:36:54.815Z,2.00
2018-09-12T19:39:24.824Z,2.47
2018-09-12T19:41:53.406Z,5.97
2018-09-12T19:44:22.201Z,6.93
2018-09-12T19:46:50.711Z,4.03
2018-09-12T19:49:19.277Z,5.77
2018-09-12T19:51:48.491Z,5.67
2018-09-12T19:54:17.008Z,3.93
2018-09-12T19:56:47.037Z,9.30
2018-09-12T19:59:15.544Z,4.33
2018-09-12T20:01:44.161Z,5.30
2018-09-12T20:04:12.608Z,3.13
2018-09-12T20:06:41.421Z,7.33
2018-09-12T20:09:11.402Z,3.90
2018-09-12T20:11:40.008Z,3.17
2018-09-12T20:14:08.644Z,7.73
2018-09-12T20:16:37.204Z,4.50
2018-09-12T20:19:05.854Z,2.60
2018-09-12T20:21:35.028Z,3.20
2018-09-12T20:24:04.003Z,4.83
2018-09-12T20:26:32.404Z,2.50
2018-09-12T20:29:00.957Z,5.67
2018-09-12T20:31:29.533Z,3.53
2018-09-12T20:33:58.073Z,3.83
2018-09-12T20:36:26.549Z,3.43
2018-09-12T20:38:55.214Z,3.97
2018-09-12T20:41:23.785Z,3.60
2018-09-12T20:43:52.300Z,3.60
2018-09-12T20:46:20.894Z,4.93
2018-09-12T20:48:49.523Z,6.50
2018-09-12T20:51:17.994Z,6.47
2018-09-12T20:53:47.418Z,3.53
2018-09-12T20:56:15.986Z,4.00
2018-09-12T20:58:45.777Z,3.60
2018-09-12T21:01:14.721Z,4.20
2018-09-12T21:03:43.651Z,3.20
2018-09-12T21:06:12.596Z,4.03
2018-09-12T21:08:41.497Z,7.10
2018-09-12T21:11:10.019Z,4.70
2018-09-12T21:13:38.811Z,5.67
2018-09-12T21:16:08.105Z,5.87
2018-09-12T21:18:37.575Z,4.17
2018-09-12T21:21:06.659Z,10.03
2018-09-12T21:23:35.225Z,3.80
2018-09-12T21:26:04.063Z,3.83
2018-09-12T21:28:32.608Z,5.53
2018-09-12T21:31:01.176Z,3.70
2018-09-12T21:33:29.982Z,5.30
2018-09-12T21:35:58.745Z,4.10
2018-09-12T21:38:27.635Z,5.27
2018-09-12T21:40:57.006Z,4.40
2018-09-12T21:43:27.565Z,3.90
2018-09-12T21:45:57.050Z,9.20
2018-09-12T21:48:27.573Z,6.53
2018-09-12T21:50:56.553Z,4.90
2018-09-12T21:53:25.203Z,3.83
2018-09-12T21:55:53.964Z,4.07
2018-09-12T21:58:22.550Z,5.03
2018-09-12T22:00:51.914Z,4.63
2018-09-12T22:03:20.413Z,4.80
2018-09-12T22:05:48.923Z,5.53
2018-09-12T22:08:17.503Z,6.37
2018-09-12T22:10:46.075Z,5.27
2018-09-12T22:13:14.579Z,4.63
2018-09-12T22:15:43.212Z,4.23
2018-09-12T22:18:11.716Z,4.83
2018-09-12T22:20:40.684Z,3.13
2018-09-12T22:23:09.309Z,5.70
2018-09-12T22:25:37.772Z,4.20
2018-09-12T22:28:06.379Z,3.50
2018-09-12T22:30:34.830Z,4.40
2018-09-12T22:33:03.405Z,4.13
2018-09-12T22:35:31.934Z,5.63
2018-09-12T22:38:00.570Z,6.30
2018-09-12T22:40:29.146Z,6.73
2018-09-12T22:42:57.826Z,4.53
2018-09-12T22:45:26.316Z,3.53
2018-09-12T22:47:54.801Z,3.03
2018-09-12T22:50:23.285Z,5.03
2018-09-12T22:52:51.765Z,6.77
2018-09-12T22:55:20.400Z,4.37
2018-09-12T22:57:48.945Z,5.83
2018-09-12T23:00:17.484Z,8.17
2018-09-12T23:02:46.046Z,4.93
2018-09-12T23:05:14.577Z,5.67
2018-09-12T23:07:43.122Z,3.87
2018-09-12T23:10:11.654Z,6.90
2018-09-12T23:12:40.204Z,7.03
2018-09-12T23:15:08.814Z,4.50
2018-09-12T23:17:37.880Z,6.37
2018-09-12T23:20:06.779Z,2.70
2018-09-12T23:22:35.318Z,3.33
2018-09-12T23:25:03.880Z,9.57
2018-09-12T23:27:32.402Z,9.43
2018-09-12T23:30:00.932Z,3.83
2018-09-12T23:32:29.479Z,4.63
2018-09-12T23:34:57.984Z,3.47
2018-09-12T23:37:26.564Z,7.27
2018-09-12T23:39:55.070Z,4.90
2018-09-12T23:42:23.522Z,4.70
2018-09-12T23:44:52.065Z,3.90
2018-09-12T23:47:20.526Z,6.50
2018-09-12T23:49:49.031Z,4.80
2018-09-12T23:52:17.536Z,3.67
2018-09-12T23:54:46.157Z,4.40
2018-09-12T23:57:14.621Z,5.47
2018-09-12T23:59:43.113Z,4.37
